Terminal Aerodrome Forecast
Issued by NWS

Home | Current Version | Previous Version | Graphics & Text | Print | Product List | Glossary On
Versions: 1 2 3 4 5 6 7 8 9 10 11 12 13 14 15 16 17 18 19 20 21 22 23 24 25 26 27 28 29 30 31 32 33 34
000
FTUS43 KABR 110509 AAC
TAFMBG
TAF AMD
KMBG 110509Z 1105/1124 10009KT 1SM -SN OVC018
     FM110800 04008KT 3SM -SN OVC025
     FM110900 03007KT P6SM OVC025
     FM111400 33007KT P6SM BKN025=

USA.gov is the U.S. government's official web portal to all federal, state and local government web resources and services.